Time;durP1;ratioP1;P1;durP2;ratioP2;P2;SDS_P1;SDS_P2;PMS_P1;PMS_P2;Temp;Humidity;BMP_temperature;BMP_pressure;BME280_temperature;BME280_humidity;BME280_pressure;Samples;Min_cycle;Max_cycle;Signal;HPM_P1;HPM_P2
2024/01/19 00:00:44;;;;;;;;;;;22.20;41.40;;;;;;5033010;28;19997;-58
2024/01/19 00:03:11;;;;;;;;;;;22.20;41.40;;;;;;5032916;28;19929;-58
2024/01/19 00:05:38;;;;;;;;;;;22.20;41.40;;;;;;5033049;28;19929;-59
2024/01/19 00:08:05;;;;;;;;;;;22.20;41.30;;;;;;5032487;28;19925;-58
2024/01/19 00:10:33;;;;;;;;;;;22.20;41.20;;;;;;5033027;28;19925;-58
2024/01/19 00:12:59;;;;;;;;;;;22.20;41.20;;;;;;5032978;28;19933;-58
2024/01/19 00:15:27;;;;;;;;;;;22.20;41.10;;;;;;5032926;28;19929;-58
2024/01/19 00:18:05;;;;;;;;;;;22.20;41.10;;;;;;5035652;28;19932;-58
2024/01/19 00:20:33;;;;;;;;;;;22.20;41.10;;;;;;5036619;28;19929;-59
2024/01/19 00:22:59;;;;;;;;;;;22.20;41.10;;;;;;5036378;28;19983;-60
2024/01/19 00:25:26;;;;;;;;;;;22.10;41.00;;;;;;5052373;28;19925;-58
2024/01/19 00:27:53;;;;;;;;;;;22.10;40.90;;;;;;5036532;28;20322;-59
2024/01/19 00:30:20;;;;;;;;;;;22.10;40.80;;;;;;5036681;28;19932;-61
2024/01/19 00:32:47;;;;;;;;;;;22.10;40.80;;;;;;5036376;28;19929;-58
2024/01/19 00:35:14;;;;;;;;;;;22.10;40.80;;;;;;5036515;28;19925;-58
2024/01/19 00:37:45;;;;;;;;;;;22.10;40.70;;;;;;5036486;28;19929;-58
2024/01/19 00:40:12;;;;;;;;;;;22.10;40.70;;;;;;5036175;28;20401;-58
2024/01/19 00:42:39;;;;;;;;;;;22.10;40.60;;;;;;5036225;28;19952;-58
2024/01/19 00:45:07;;;;;;;;;;;22.00;40.60;;;;;;5035915;28;19933;-58
2024/01/19 00:47:35;;;;;;;;;;;22.00;40.50;;;;;;5036038;28;19926;-58
2024/01/19 00:50:02;;;;;;;;;;;22.00;40.50;;;;;;5035911;28;20313;-58
2024/01/19 00:52:29;;;;;;;;;;;22.00;40.50;;;;;;5035867;28;19925;-59
2024/01/19 00:54:56;;;;;;;;;;;22.00;40.40;;;;;;5035762;28;19932;-58
2024/01/19 00:57:23;;;;;;;;;;;22.00;40.40;;;;;;5036192;28;20294;-58
2024/01/19 00:59:50;;;;;;;;;;;22.00;40.30;;;;;;5035757;28;19925;-58
2024/01/19 01:02:17;;;;;;;;;;;22.00;40.30;;;;;;5035828;28;19936;-59
2024/01/19 01:04:44;;;;;;;;;;;22.00;40.30;;;;;;5035478;28;19929;-58
2024/01/19 01:07:11;;;;;;;;;;;22.00;40.20;;;;;;5035604;28;19936;-58
2024/01/19 01:09:38;;;;;;;;;;;22.00;40.20;;;;;;5035968;28;19999;-59
2024/01/19 01:12:05;;;;;;;;;;;22.00;40.20;;;;;;5035517;28;19971;-58
2024/01/19 01:14:32;;;;;;;;;;;22.00;40.20;;;;;;5035889;28;20272;-58
2024/01/19 01:16:59;;;;;;;;;;;22.00;40.10;;;;;;5035421;28;20000;-58
2024/01/19 01:19:26;;;;;;;;;;;22.00;40.10;;;;;;5035448;28;19926;-58
2024/01/19 01:21:53;;;;;;;;;;;22.00;40.00;;;;;;5035850;28;19925;-58
2024/01/19 01:24:22;;;;;;;;;;;22.00;39.90;;;;;;5035391;28;19932;-59
2024/01/19 01:26:49;;;;;;;;;;;22.00;39.90;;;;;;5034860;28;19975;-59
2024/01/19 01:29:16;;;;;;;;;;;22.00;39.90;;;;;;5034742;28;19987;-59
2024/01/19 01:31:43;;;;;;;;;;;22.00;39.90;;;;;;5035700;28;19925;-58
2024/01/19 01:34:10;;;;;;;;;;;21.90;39.80;;;;;;5035041;28;19979;-58
2024/01/19 01:36:37;;;;;;;;;;;21.90;39.80;;;;;;5035131;28;19975;-58
2024/01/19 01:39:04;;;;;;;;;;;21.90;39.80;;;;;;5035159;28;19925;-58
2024/01/19 01:41:31;;;;;;;;;;;21.90;39.80;;;;;;5035023;28;19925;-58
2024/01/19 01:43:59;;;;;;;;;;;21.90;39.80;;;;;;5034943;28;19960;-58
2024/01/19 01:46:26;;;;;;;;;;;21.90;39.80;;;;;;5035418;28;19932;-59
2024/01/19 01:48:53;;;;;;;;;;;21.90;39.80;;;;;;5034754;28;20322;-58
2024/01/19 01:51:20;;;;;;;;;;;21.80;39.70;;;;;;5035209;28;19929;-59
2024/01/19 01:53:47;;;;;;;;;;;21.90;39.80;;;;;;5034838;28;20049;-58
2024/01/19 01:56:15;;;;;;;;;;;21.90;39.80;;;;;;5034765;28;19925;-58
2024/01/19 01:58:42;;;;;;;;;;;21.80;39.70;;;;;;5034739;28;19925;-58
2024/01/19 02:01:09;;;;;;;;;;;21.80;39.70;;;;;;5034737;28;20011;-58
2024/01/19 02:03:36;;;;;;;;;;;21.80;39.80;;;;;;5034331;28;20378;-58
2024/01/19 02:06:04;;;;;;;;;;;21.80;39.70;;;;;;5034949;28;19925;-58
2024/01/19 02:08:31;;;;;;;;;;;21.80;39.70;;;;;;5034548;28;20015;-58
2024/01/19 02:10:58;;;;;;;;;;;21.80;39.70;;;;;;5034423;28;19932;-59
2024/01/19 02:13:25;;;;;;;;;;;21.80;39.70;;;;;;5034694;28;20417;-58
2024/01/19 02:15:52;;;;;;;;;;;21.80;39.70;;;;;;5034424;28;19929;-58
2024/01/19 02:18:19;;;;;;;;;;;21.80;39.70;;;;;;5034107;28;19971;-58
2024/01/19 02:20:46;;;;;;;;;;;21.80;39.70;;;;;;5034317;28;20387;-58
2024/01/19 02:23:13;;;;;;;;;;;21.80;39.60;;;;;;5033750;28;19925;-58
2024/01/19 02:25:40;;;;;;;;;;;21.80;39.60;;;;;;5034097;28;19979;-58
2024/01/19 02:28:08;;;;;;;;;;;21.80;39.60;;;;;;5034286;28;20282;-58
2024/01/19 02:30:36;;;;;;;;;;;21.80;39.60;;;;;;5034052;28;20032;-59
2024/01/19 02:33:03;;;;;;;;;;;21.80;39.50;;;;;;5049178;28;19929;-58
2024/01/19 02:35:30;;;;;;;;;;;21.80;39.50;;;;;;5034064;28;19932;-58
2024/01/19 02:37:58;;;;;;;;;;;21.80;39.60;;;;;;5032756;28;19932;-58
2024/01/19 02:40:25;;;;;;;;;;;21.80;39.50;;;;;;5033546;28;19931;-58
2024/01/19 02:42:51;;;;;;;;;;;21.80;39.60;;;;;;5033813;28;19925;-59
2024/01/19 02:45:18;;;;;;;;;;;21.80;39.60;;;;;;5033652;28;19928;-58
2024/01/19 02:47:45;;;;;;;;;;;21.80;39.70;;;;;;5034126;28;19971;-58
2024/01/19 02:50:12;;;;;;;;;;;21.70;39.60;;;;;;5033538;28;19926;-58
2024/01/19 02:52:39;;;;;;;;;;;21.80;39.70;;;;;;5034048;28;20019;-58
2024/01/19 02:55:06;;;;;;;;;;;21.70;39.60;;;;;;5033846;28;20302;-58
2024/01/19 02:57:33;;;;;;;;;;;21.70;39.60;;;;;;5033838;28;19979;-58
2024/01/19 03:00:00;;;;;;;;;;;21.70;39.70;;;;;;5033851;28;19970;-58
2024/01/19 03:02:27;;;;;;;;;;;21.70;39.70;;;;;;5033688;28;19925;-58
2024/01/19 03:04:54;;;;;;;;;;;21.70;39.70;;;;;;5033252;28;20020;-58
2024/01/19 03:07:22;;;;;;;;;;;21.70;39.70;;;;;;5033745;28;20337;-58
2024/01/19 03:09:49;;;;;;;;;;;21.70;39.70;;;;;;5033395;28;20302;-58
2024/01/19 03:12:17;;;;;;;;;;;21.70;39.70;;;;;;5033539;28;19929;-58
2024/01/19 03:14:44;;;;;;;;;;;21.60;39.70;;;;;;5033642;28;19925;-58
2024/01/19 03:17:12;;;;;;;;;;;21.60;39.60;;;;;;5033399;28;20342;-58
2024/01/19 03:19:39;;;;;;;;;;;21.70;39.70;;;;;;5033727;28;19987;-59
2024/01/19 03:22:06;;;;;;;;;;;21.60;39.60;;;;;;5033688;28;19925;-58
2024/01/19 03:24:32;;;;;;;;;;;21.60;39.60;;;;;;5033416;28;19925;-58
2024/01/19 03:26:59;;;;;;;;;;;21.60;39.60;;;;;;5033263;28;20399;-58
2024/01/19 03:29:26;;;;;;;;;;;21.60;39.60;;;;;;5033129;28;20016;-58
2024/01/19 03:31:53;;;;;;;;;;;21.60;39.60;;;;;;5033228;28;19971;-58
2024/01/19 03:34:21;;;;;;;;;;;21.60;39.70;;;;;;5033211;28;19980;-59
2024/01/19 03:39:14;;;;;;;;;;;21.60;39.60;;;;;;5032964;28;19925;-58
2024/01/19 03:41:41;;;;;;;;;;;21.60;39.50;;;;;;5033116;28;19925;-58
2024/01/19 03:44:08;;;;;;;;;;;21.60;39.50;;;;;;5033296;28;19975;-58
2024/01/19 03:46:35;;;;;;;;;;;21.60;39.50;;;;;;5033186;28;19983;-59
2024/01/19 03:49:02;;;;;;;;;;;21.60;39.40;;;;;;5032668;28;19935;-58
2024/01/19 03:51:29;;;;;;;;;;;21.60;39.30;;;;;;5035147;28;19925;-58
2024/01/19 03:53:56;;;;;;;;;;;21.60;39.30;;;;;;5036972;28;19931;-58
2024/01/19 03:56:24;;;;;;;;;;;21.60;39.30;;;;;;5037102;28;19968;-60
2024/01/19 03:58:51;;;;;;;;;;;21.60;39.30;;;;;;5036859;28;19925;-60
2024/01/19 04:01:18;;;;;;;;;;;21.60;39.30;;;;;;5036718;28;19979;-59
2024/01/19 04:03:45;;;;;;;;;;;21.60;39.30;;;;;;5037143;28;19975;-62
2024/01/19 04:06:14;;;;;;;;;;;21.60;39.40;;;;;;5037117;28;19926;-60
2024/01/19 04:08:41;;;;;;;;;;;21.60;39.30;;;;;;5036752;28;19932;-58
2024/01/19 04:13:35;;;;;;;;;;;21.60;39.50;;;;;;5036969;28;19931;-58
2024/01/19 04:16:03;;;;;;;;;;;21.50;39.40;;;;;;5036753;28;20012;-58
2024/01/19 04:18:30;;;;;;;;;;;21.50;39.40;;;;;;5036526;28;20433;-58
2024/01/19 04:20:57;;;;;;;;;;;21.50;39.40;;;;;;5036351;28;20028;-58
2024/01/19 04:23:24;;;;;;;;;;;21.50;39.40;;;;;;5036521;28;19925;-58
2024/01/19 04:25:51;;;;;;;;;;;21.50;39.40;;;;;;5036318;28;19964;-58
2024/01/19 04:28:18;;;;;;;;;;;21.50;39.40;;;;;;5036251;28;19969;-58
2024/01/19 04:30:45;;;;;;;;;;;21.50;39.40;;;;;;5036469;28;20287;-58
2024/01/19 04:33:12;;;;;;;;;;;21.50;39.40;;;;;;5036041;28;19952;-58
2024/01/19 04:35:39;;;;;;;;;;;21.50;39.40;;;;;;5036475;28;20339;-57
2024/01/19 04:38:06;;;;;;;;;;;21.50;39.40;;;;;;5036228;28;19925;-58
2024/01/19 04:40:33;;;;;;;;;;;21.40;39.10;;;;;;5036381;28;20031;-58
2024/01/19 04:42:59;;;;;;;;;;;21.50;39.60;;;;;;5034098;28;20024;-58
2024/01/19 04:45:26;;;;;;;;;;;21.50;38.90;;;;;;5033968;28;19925;-58
2024/01/19 04:47:53;;;;;;;;;;;21.50;38.80;;;;;;5035761;28;20015;-58
2024/01/19 04:50:20;;;;;;;;;;;21.50;38.60;;;;;;5035846;28;19925;-58
2024/01/19 04:52:47;;;;;;;;;;;21.50;38.60;;;;;;5035982;28;19929;-58
2024/01/19 04:55:14;;;;;;;;;;;21.50;38.60;;;;;;5035531;28;19976;-58
2024/01/19 04:57:41;;;;;;;;;;;21.50;38.60;;;;;;5034131;28;19979;-58
2024/01/19 05:00:08;;;;;;;;;;;21.50;38.60;;;;;;5016160;28;19934;-58
2024/01/19 05:02:35;;;;;;;;;;;21.50;38.60;;;;;;5015375;28;19933;-58
2024/01/19 05:05:02;;;;;;;;;;;21.50;38.50;;;;;;5032082;28;19936;-58
2024/01/19 05:07:29;;;;;;;;;;;21.50;38.50;;;;;;5035569;28;19933;-58
2024/01/19 05:09:57;;;;;;;;;;;21.50;38.40;;;;;;5035067;28;19925;-59
2024/01/19 05:12:24;;;;;;;;;;;21.50;38.40;;;;;;5018957;28;19925;-58
2024/01/19 05:14:51;;;;;;;;;;;21.50;38.40;;;;;;5015955;28;19926;-58
2024/01/19 05:17:18;;;;;;;;;;;21.50;38.40;;;;;;5015352;28;19932;-58
2024/01/19 05:19:45;;;;;;;;;;;21.50;38.30;;;;;;5017776;28;19956;-58
2024/01/19 05:22:12;;;;;;;;;;;21.50;38.30;;;;;;5035645;28;20012;-57
2024/01/19 05:24:39;;;;;;;;;;;21.50;38.40;;;;;;5035358;28;19925;-58
2024/01/19 05:27:07;;;;;;;;;;;21.50;38.30;;;;;;5035126;28;19925;-58
2024/01/19 05:29:34;;;;;;;;;;;21.50;38.30;;;;;;5033814;28;19932;-58
2024/01/19 05:32:01;;;;;;;;;;;21.50;38.30;;;;;;5024568;28;20337;-58
2024/01/19 05:34:28;;;;;;;;;;;21.50;38.20;;;;;;5027600;28;19929;-57
2024/01/19 05:36:55;;;;;;;;;;;21.50;38.20;;;;;;5034979;28;20298;-57
2024/01/19 05:39:22;;;;;;;;;;;21.50;38.20;;;;;;5037239;28;19929;-57
2024/01/19 05:41:49;;;;;;;;;;;21.50;38.10;;;;;;5035206;28;19999;-58
2024/01/19 05:44:16;;;;;;;;;;;21.50;38.10;;;;;;5017686;28;20428;-58
2024/01/19 05:46:43;;;;;;;;;;;21.50;38.10;;;;;;5015173;28;20441;-57
2024/01/19 05:49:10;;;;;;;;;;;21.50;38.00;;;;;;5014456;28;19929;-58
2024/01/19 05:51:37;;;;;;;;;;;21.50;38.10;;;;;;5014657;28;19929;-58
2024/01/19 05:54:04;;;;;;;;;;;21.50;38.00;;;;;;5014653;28;19926;-58
2024/01/19 05:56:31;;;;;;;;;;;21.50;38.00;;;;;;5015180;28;19926;-57
2024/01/19 05:58:58;;;;;;;;;;;21.50;38.00;;;;;;5014766;28;19925;-58
2024/01/19 06:01:25;;;;;;;;;;;21.50;38.10;;;;;;5030871;28;19925;-58
2024/01/19 06:03:52;;;;;;;;;;;21.50;38.10;;;;;;5032383;28;19925;-58
2024/01/19 06:06:19;;;;;;;;;;;21.50;38.10;;;;;;5021474;28;19975;-58
2024/01/19 06:08:46;;;;;;;;;;;21.50;38.10;;;;;;5015294;28;19932;-59
2024/01/19 06:11:13;;;;;;;;;;;21.50;38.10;;;;;;5018597;28;20363;-58
2024/01/19 06:13:40;;;;;;;;;;;21.50;38.10;;;;;;5019008;28;19931;-58
2024/01/19 06:16:07;;;;;;;;;;;21.50;38.10;;;;;;5018125;28;19926;-59
2024/01/19 06:18:34;;;;;;;;;;;21.50;38.10;;;;;;5017777;28;19940;-60
2024/01/19 06:21:01;;;;;;;;;;;21.50;38.70;;;;;;5019037;28;19940;-60
2024/01/19 06:23:28;;;;;;;;;;;21.50;38.10;;;;;;5017927;28;19929;-59
2024/01/19 06:25:55;;;;;;;;;;;21.50;38.10;;;;;;5029717;28;19955;-59
2024/01/19 06:28:23;;;;;;;;;;;21.50;38.20;;;;;;5022459;28;19937;-60
2024/01/19 06:30:49;;;;;;;;;;;21.50;38.20;;;;;;5017281;28;19933;-57
2024/01/19 06:33:16;;;;;;;;;;;21.50;38.20;;;;;;5012081;28;19964;-58
2024/01/19 06:35:43;;;;;;;;;;;21.60;38.30;;;;;;5027881;28;20004;-56
2024/01/19 06:38:11;;;;;;;;;;;21.50;38.30;;;;;;5019913;28;19926;-58
2024/01/19 06:40:38;;;;;;;;;;;21.60;38.60;;;;;;5027130;28;19924;-58
2024/01/19 06:43:05;;;;;;;;;;;21.60;38.80;;;;;;5006829;28;19955;-59
2024/01/19 06:45:32;;;;;;;;;;;21.60;38.90;;;;;;5020417;28;19949;-59
2024/01/19 06:47:58;;;;;;;;;;;21.60;38.90;;;;;;5022629;28;20322;-58
2024/01/19 06:50:26;;;;;;;;;;;21.70;39.00;;;;;;5022911;28;20399;-59
2024/01/19 06:52:53;;;;;;;;;;;21.60;38.90;;;;;;5022018;28;19934;-59
2024/01/19 06:55:24;;;;;;;;;;;21.70;38.90;;;;;;5021399;28;20016;-59
2024/01/19 06:57:52;;;;;;;;;;;21.70;39.00;;;;;;5021694;28;19933;-59
2024/01/19 07:00:19;;;;;;;;;;;21.70;39.00;;;;;;5018910;28;19979;-58
2024/01/19 07:02:46;;;;;;;;;;;21.70;39.10;;;;;;5020025;28;20449;-58
2024/01/19 07:05:13;;;;;;;;;;;21.70;39.40;;;;;;5017412;28;20291;-53
2024/01/19 07:07:40;;;;;;;;;;;21.80;39.60;;;;;;5014906;28;19936;-56
2024/01/19 07:10:07;;;;;;;;;;;21.80;39.90;;;;;;5020756;28;19933;-56
2024/01/19 07:12:34;;;;;;;;;;;21.90;40.30;;;;;;5018633;28;20036;-58
2024/01/19 07:15:01;;;;;;;;;;;21.90;40.30;;;;;;5019472;28;20401;-60
2024/01/19 07:17:28;;;;;;;;;;;22.00;40.20;;;;;;5018735;28;20330;-58
2024/01/19 07:19:57;;;;;;;;;;;22.00;40.00;;;;;;5016153;28;19941;-57
2024/01/19 07:22:24;;;;;;;;;;;22.00;40.30;;;;;;5016755;28;19928;-59
2024/01/19 07:24:51;;;;;;;;;;;22.10;40.30;;;;;;5019073;28;19972;-59
2024/01/19 07:27:18;;;;;;;;;;;22.10;41.00;;;;;;5019580;28;19932;-59
2024/01/19 07:29:45;;;;;;;;;;;22.20;40.50;;;;;;5012247;28;20024;-57
2024/01/19 07:32:12;;;;;;;;;;;22.20;40.40;;;;;;5018593;28;19933;-56
2024/01/19 07:34:39;;;;;;;;;;;22.20;40.10;;;;;;5016125;28;20068;-57
2024/01/19 07:37:06;;;;;;;;;;;22.30;40.10;;;;;;5010715;28;20023;-55
2024/01/19 07:39:33;;;;;;;;;;;22.30;40.10;;;;;;5017683;28;20365;-57
2024/01/19 07:42:00;;;;;;;;;;;22.40;40.10;;;;;;5018838;28;20604;-56
2024/01/19 07:44:27;;;;;;;;;;;22.40;40.10;;;;;;5019827;28;19969;-58
2024/01/19 07:46:54;;;;;;;;;;;22.40;40.10;;;;;;5020783;28;19933;-56
2024/01/19 07:49:21;;;;;;;;;;;22.50;39.90;;;;;;5022302;28;19988;-59
2024/01/19 07:51:49;;;;;;;;;;;22.50;39.70;;;;;;5020670;28;19939;-57
2024/01/19 07:54:17;;;;;;;;;;;22.50;39.60;;;;;;5020883;28;19936;-57
2024/01/19 07:56:45;;;;;;;;;;;22.50;39.60;;;;;;5022535;28;19956;-56
2024/01/19 07:59:12;;;;;;;;;;;22.60;39.60;;;;;;5020303;28;19925;-57
2024/01/19 08:01:39;;;;;;;;;;;22.60;39.80;;;;;;5018636;28;19925;-57
2024/01/19 08:04:06;;;;;;;;;;;22.60;39.70;;;;;;5015917;28;20460;-55
2024/01/19 08:06:33;;;;;;;;;;;22.70;39.70;;;;;;5018583;28;20010;-56
2024/01/19 08:09:00;;;;;;;;;;;22.70;39.70;;;;;;5021871;28;19933;-57
2024/01/19 08:11:27;;;;;;;;;;;22.70;39.80;;;;;;5019123;28;19960;-58
2024/01/19 08:13:54;;;;;;;;;;;22.70;39.70;;;;;;5017970;28;19933;-57
2024/01/19 08:16:21;;;;;;;;;;;22.70;39.80;;;;;;5019513;28;19933;-58
2024/01/19 08:18:48;;;;;;;;;;;22.70;39.80;;;;;;5018516;28;19925;-55
2024/01/19 08:21:16;;;;;;;;;;;22.80;39.90;;;;;;5022957;28;19931;-51
2024/01/19 08:23:43;;;;;;;;;;;22.80;39.90;;;;;;5020392;28;19932;-55
2024/01/19 08:26:10;;;;;;;;;;;22.90;39.70;;;;;;5016750;28;19968;-58
2024/01/19 08:28:37;;;;;;;;;;;22.90;39.70;;;;;;5022258;28;19933;-58
2024/01/19 08:31:10;;;;;;;;;;;22.90;39.80;;;;;;5020732;28;19933;-58
2024/01/19 08:33:37;;;;;;;;;;;23.00;39.80;;;;;;5016017;28;19937;-58
2024/01/19 08:36:04;;;;;;;;;;;23.00;39.80;;;;;;5016422;28;19928;-58
2024/01/19 08:48:02;;;;;;;;;;;23.20;39.70;;;;;;6011233;22;19933;-88
2024/01/19 08:50:33;;;;;;;;;;;23.20;39.60;;;;;;5055156;28;19928;-90
2024/01/19 08:53:13;;;;;;;;;;;23.30;39.60;;;;;;5041306;28;19928;-86
2024/01/19 08:55:42;;;;;;;;;;;23.30;39.70;;;;;;5052185;28;19995;-86
2024/01/19 08:58:10;;;;;;;;;;;23.30;39.80;;;;;;5049409;28;19932;-86
2024/01/19 09:00:37;;;;;;;;;;;23.30;39.60;;;;;;5036404;28;19928;-82
2024/01/19 09:03:04;;;;;;;;;;;23.30;39.60;;;;;;5039059;28;19932;-85
2024/01/19 09:05:32;;;;;;;;;;;23.20;39.40;;;;;;5054005;28;19933;-86
2024/01/19 09:07:59;;;;;;;;;;;23.20;39.40;;;;;;5037727;28;19935;-86
2024/01/19 09:10:27;;;;;;;;;;;23.20;39.30;;;;;;5036914;28;19939;-86
2024/01/19 09:12:54;;;;;;;;;;;23.20;39.50;;;;;;5056232;28;19981;-86
2024/01/19 09:15:21;;;;;;;;;;;23.30;39.50;;;;;;5035593;28;19964;-88
2024/01/19 09:17:49;;;;;;;;;;;23.30;39.40;;;;;;5038401;28;20393;-88
2024/01/19 09:20:16;;;;;;;;;;;23.30;39.40;;;;;;5069005;28;20328;-89
2024/01/19 09:22:43;;;;;;;;;;;23.30;39.30;;;;;;5053482;28;19932;-89
2024/01/19 09:25:14;;;;;;;;;;;23.40;39.50;;;;;;5054822;28;20027;-88
2024/01/19 09:27:41;;;;;;;;;;;23.40;39.60;;;;;;5048135;28;20733;-83
2024/01/19 09:30:09;;;;;;;;;;;23.40;39.80;;;;;;5050966;28;20392;-83
2024/01/19 09:32:38;;;;;;;;;;;23.50;40.00;;;;;;5035370;28;19928;-86
2024/01/19 09:35:06;;;;;;;;;;;23.50;39.90;;;;;;5066010;28;19937;-83
2024/01/19 09:37:33;;;;;;;;;;;23.60;39.80;;;;;;5052136;28;20404;-83
2024/01/19 09:40:00;;;;;;;;;;;23.60;40.10;;;;;;5036841;28;19939;-82
2024/01/19 09:42:33;;;;;;;;;;;23.60;39.30;;;;;;5037584;28;19968;-84
2024/01/19 09:45:04;;;;;;;;;;;23.60;39.30;;;;;;5054573;28;19933;-85
2024/01/19 09:47:44;;;;;;;;;;;23.60;39.10;;;;;;5056227;28;20014;-88
2024/01/19 09:50:18;;;;;;;;;;;23.60;39.00;;;;;;5033104;28;19929;-84
2024/01/19 09:52:54;;;;;;;;;;;23.60;38.90;;;;;;5041531;28;19990;-86
2024/01/19 09:55:34;;;;;;;;;;;23.60;38.90;;;;;;5033819;28;19959;-87
2024/01/19 09:58:03;;;;;;;;;;;23.60;39.00;;;;;;5053056;28;19933;-83
2024/01/19 10:00:30;;;;;;;;;;;23.70;39.10;;;;;;5035041;28;19931;-84
2024/01/19 10:02:58;;;;;;;;;;;23.60;39.20;;;;;;5033557;28;19925;-82
2024/01/19 10:05:28;;;;;;;;;;;23.70;39.20;;;;;;5033724;28;20607;-82
2024/01/19 10:07:55;;;;;;;;;;;23.60;39.10;;;;;;5067846;28;19928;-85
2024/01/19 10:10:22;;;;;;;;;;;23.70;39.10;;;;;;5033454;28;20370;-84
2024/01/19 10:12:49;;;;;;;;;;;23.70;38.90;;;;;;5067251;28;19928;-85
2024/01/19 10:15:22;;;;;;;;;;;23.60;38.80;;;;;;5040699;28;19994;-85
2024/01/19 10:17:51;;;;;;;;;;;23.70;38.80;;;;;;5053941;28;19936;-87
2024/01/19 10:20:19;;;;;;;;;;;23.70;38.70;;;;;;5038741;28;19928;-86
2024/01/19 10:22:46;;;;;;;;;;;23.70;38.50;;;;;;5072781;28;19933;-86
2024/01/19 10:25:17;;;;;;;;;;;23.70;38.20;;;;;;5043025;28;19928;-86
2024/01/19 10:27:46;;;;;;;;;;;23.80;38.00;;;;;;5043781;28;19929;-85
2024/01/19 10:30:15;;;;;;;;;;;23.80;37.90;;;;;;5055369;28;19955;-86
2024/01/19 10:32:43;;;;;;;;;;;23.80;37.70;;;;;;5051581;28;19925;-86
2024/01/19 10:35:11;;;;;;;;;;;23.80;37.70;;;;;;5071050;28;19983;-94
2024/01/19 10:37:38;;;;;;;;;;;23.80;37.60;;;;;;5063994;28;19932;-85
2024/01/19 10:40:13;;;;;;;;;;;23.90;37.50;;;;;;5052707;28;19935;-81
2024/01/19 10:42:41;;;;;;;;;;;23.90;37.20;;;;;;5047688;28;19928;-85
2024/01/19 10:45:22;;;;;;;;;;;23.90;36.90;;;;;;5049581;28;20398;-84
2024/01/19 10:47:50;;;;;;;;;;;23.90;36.70;;;;;;5030858;28;20408;-85
2024/01/19 10:50:18;;;;;;;;;;;24.00;36.50;;;;;;5049355;28;19929;-84
2024/01/19 10:52:48;;;;;;;;;;;24.00;36.30;;;;;;5045732;28;20003;-85
2024/01/19 10:55:17;;;;;;;;;;;23.90;36.10;;;;;;5054162;28;19934;-85
2024/01/19 10:57:44;;;;;;;;;;;23.90;35.80;;;;;;5064763;28;19968;-85
2024/01/19 11:00:20;;;;;;;;;;;24.00;35.70;;;;;;5052546;28;19932;-86
2024/01/19 11:03:02;;;;;;;;;;;24.00;35.60;;;;;;5063007;28;19929;-95
2024/01/19 11:05:31;;;;;;;;;;;24.10;35.70;;;;;;5063703;28;19932;-89
2024/01/19 11:08:00;;;;;;;;;;;24.00;36.40;;;;;;5032405;28;20365;-86
2024/01/19 11:10:31;;;;;;;;;;;24.10;37.20;;;;;;5040244;28;19959;-86
2024/01/19 11:13:00;;;;;;;;;;;24.00;38.10;;;;;;5044505;28;20119;-85
2024/01/19 11:15:31;;;;;;;;;;;24.00;38.80;;;;;;5039826;28;19924;-85
2024/01/19 11:17:58;;;;;;;;;;;24.10;39.60;;;;;;5048373;28;19939;-84
2024/01/19 11:20:28;;;;;;;;;;;24.10;40.00;;;;;;5051204;28;19925;-83
2024/01/19 11:22:59;;;;;;;;;;;24.10;39.80;;;;;;5031373;28;20265;-82
2024/01/19 11:25:33;;;;;;;;;;;24.10;39.10;;;;;;5031915;28;19925;-84
2024/01/19 11:28:09;;;;;;;;;;;24.10;38.60;;;;;;5065069;28;20811;-84
2024/01/19 11:30:52;;;;;;;;;;;24.00;38.00;;;;;;5054891;28;19932;-85
2024/01/19 11:33:19;;;;;;;;;;;24.00;37.60;;;;;;5053221;28;19932;-86
2024/01/19 11:35:48;;;;;;;;;;;24.00;37.30;;;;;;5053054;28;19974;-84
2024/01/19 11:38:36;;;;;;;;;;;24.00;37.20;;;;;;5034103;28;19948;-86
2024/01/19 11:41:03;;;;;;;;;;;24.00;36.90;;;;;;5048855;28;19946;-84
2024/01/19 11:43:37;;;;;;;;;;;24.00;36.50;;;;;;5030426;28;19982;-84
2024/01/19 11:46:05;;;;;;;;;;;24.00;36.20;;;;;;5044490;28;19933;-81
2024/01/19 11:48:41;;;;;;;;;;;23.90;35.80;;;;;;5049447;28;20366;-81
2024/01/19 11:51:08;;;;;;;;;;;24.00;35.60;;;;;;5047019;28;19964;-81
2024/01/19 11:53:56;;;;;;;;;;;23.90;35.40;;;;;;5067999;28;19928;-83
2024/01/19 11:56:23;;;;;;;;;;;23.90;35.30;;;;;;5051524;28;19932;-83
2024/01/19 11:58:51;;;;;;;;;;;23.90;35.30;;;;;;5053257;28;19924;-84
2024/01/19 12:01:18;;;;;;;;;;;23.90;35.20;;;;;;5050466;28;19932;-83
2024/01/19 12:03:50;;;;;;;;;;;23.90;35.10;;;;;;5039063;28;19989;-83
2024/01/19 12:06:17;;;;;;;;;;;23.80;35.00;;;;;;5066507;28;19924;-83
2024/01/19 12:09:02;;;;;;;;;;;23.80;35.00;;;;;;5047253;28;19932;-81
2024/01/19 12:11:30;;;;;;;;;;;23.80;34.90;;;;;;5066334;28;19956;-82
2024/01/19 12:14:00;;;;;;;;;;;23.80;34.90;;;;;;5050675;28;20023;-81
2024/01/19 12:16:32;;;;;;;;;;;23.80;35.00;;;;;;5037265;28;19966;-81
2024/01/19 12:19:00;;;;;;;;;;;23.80;35.10;;;;;;5065925;28;19971;-82
2024/01/19 12:21:30;;;;;;;;;;;23.80;35.30;;;;;;5054552;28;19967;-84
2024/01/19 12:23:57;;;;;;;;;;;23.70;35.30;;;;;;5035795;28;19928;-80
2024/01/19 12:26:25;;;;;;;;;;;23.70;35.30;;;;;;5030861;28;19932;-83
2024/01/19 12:28:53;;;;;;;;;;;23.80;35.40;;;;;;5034439;28;20321;-81
2024/01/19 12:31:24;;;;;;;;;;;23.70;35.30;;;;;;5031226;28;19929;-80
2024/01/19 12:33:53;;;;;;;;;;;23.70;35.30;;;;;;5052840;28;19932;-82
2024/01/19 12:36:23;;;;;;;;;;;23.70;35.30;;;;;;5036837;28;19924;-82
2024/01/19 12:39:03;;;;;;;;;;;23.70;35.30;;;;;;5038779;28;20400;-83
2024/01/19 12:41:31;;;;;;;;;;;23.70;35.30;;;;;;5049044;28;20432;-83
2024/01/19 12:43:59;;;;;;;;;;;23.70;35.10;;;;;;5053550;28;19940;-84
2024/01/19 12:46:26;;;;;;;;;;;23.70;35.00;;;;;;5033828;28;19952;-83
2024/01/19 12:48:57;;;;;;;;;;;23.70;34.90;;;;;;5064136;28;19932;-83
2024/01/19 12:51:25;;;;;;;;;;;23.70;34.80;;;;;;5049170;28;19972;-83
2024/01/19 12:53:53;;;;;;;;;;;23.70;34.80;;;;;;5056059;28;19931;-84
2024/01/19 12:56:28;;;;;;;;;;;23.70;34.80;;;;;;5057255;28;19929;-84
2024/01/19 12:59:11;;;;;;;;;;;23.70;34.80;;;;;;5057694;28;19924;-84
2024/01/19 13:01:42;;;;;;;;;;;23.70;34.80;;;;;;5052538;28;20135;-84
2024/01/19 13:04:10;;;;;;;;;;;23.60;34.70;;;;;;5061073;28;19939;-84
2024/01/19 13:06:41;;;;;;;;;;;23.60;34.80;;;;;;5051701;28;19939;-83
2024/01/19 13:09:09;;;;;;;;;;;23.60;34.70;;;;;;5077896;28;19924;-85
2024/01/19 13:11:37;;;;;;;;;;;23.60;34.60;;;;;;5057302;28;20297;-86
2024/01/19 13:14:05;;;;;;;;;;;23.60;34.60;;;;;;5038611;28;20008;-85
2024/01/19 13:16:33;;;;;;;;;;;23.60;34.60;;;;;;5073791;28;19959;-86
2024/01/19 13:19:01;;;;;;;;;;;23.60;34.60;;;;;;5057562;28;19924;-85
2024/01/19 13:21:29;;;;;;;;;;;23.50;34.50;;;;;;5040300;28;19924;-85
2024/01/19 13:23:59;;;;;;;;;;;23.60;34.50;;;;;;5071663;28;19932;-85
2024/01/19 13:26:33;;;;;;;;;;;23.60;34.40;;;;;;5069663;28;19929;-85
2024/01/19 13:29:00;;;;;;;;;;;23.50;34.30;;;;;;5057293;28;19924;-87
2024/01/19 13:31:27;;;;;;;;;;;23.50;34.30;;;;;;5041405;28;19931;-87
2024/01/19 13:33:55;;;;;;;;;;;23.50;34.20;;;;;;5051191;28;19928;-86
2024/01/19 13:36:22;;;;;;;;;;;23.50;34.30;;;;;;5057283;28;19925;-87
2024/01/19 13:38:49;;;;;;;;;;;23.50;34.30;;;;;;5040976;28;19924;-87
2024/01/19 13:41:16;;;;;;;;;;;23.40;34.30;;;;;;5057801;28;19924;-88
2024/01/19 13:43:44;;;;;;;;;;;23.40;34.30;;;;;;5056223;28;19970;-87
2024/01/19 13:46:15;;;;;;;;;;;23.40;34.30;;;;;;5074946;28;19925;-87
2024/01/19 13:48:43;;;;;;;;;;;23.40;34.30;;;;;;5055688;28;19964;-86
2024/01/19 13:51:10;;;;;;;;;;;23.40;34.30;;;;;;5053850;28;20336;-86
2024/01/19 13:53:37;;;;;;;;;;;23.40;34.30;;;;;;5069428;28;19978;-86
2024/01/19 13:56:06;;;;;;;;;;;23.30;34.20;;;;;;5073003;28;19932;-87
2024/01/19 13:58:34;;;;;;;;;;;23.30;34.30;;;;;;5045449;28;19928;-87
2024/01/19 14:01:01;;;;;;;;;;;23.30;34.20;;;;;;5058306;28;19924;-86
2024/01/19 14:03:28;;;;;;;;;;;23.30;34.40;;;;;;5056829;28;20451;-87
2024/01/19 14:05:56;;;;;;;;;;;23.30;34.40;;;;;;5052521;28;19932;-86
2024/01/19 14:08:23;;;;;;;;;;;23.20;34.40;;;;;;5074548;28;20382;-87
2024/01/19 14:10:51;;;;;;;;;;;23.30;34.30;;;;;;5074146;28;19924;-93
2024/01/19 14:13:18;;;;;;;;;;;23.20;34.20;;;;;;5057911;28;19960;-89
2024/01/19 14:15:48;;;;;;;;;;;23.20;34.50;;;;;;5041701;28;19967;-88
2024/01/19 14:18:18;;;;;;;;;;;23.20;35.10;;;;;;5099430;23;19978;-62
2024/01/19 14:20:46;;;;;;;;;;;23.20;35.90;;;;;;5059317;28;19924;-60
2024/01/19 14:23:13;;;;;;;;;;;23.10;36.20;;;;;;5065875;28;19924;-61
2024/01/19 14:25:40;;;;;;;;;;;23.10;36.20;;;;;;5078098;28;19924;-61
2024/01/19 14:28:09;;;;;;;;;;;23.10;36.30;;;;;;5078101;28;19924;-61
2024/01/19 14:30:36;;;;;;;;;;;23.10;36.30;;;;;;5060490;28;19931;-61
2024/01/19 14:33:03;;;;;;;;;;;23.10;36.40;;;;;;5060641;28;20024;-61
2024/01/19 14:35:30;;;;;;;;;;;23.20;36.60;;;;;;5077266;28;20066;-61